TAF KAEX
KAEX 090533Z 0906/1006 00000KT P6SM SCT200 FM090800 VRB03KT P6SM BKN025 FM091200 VRB04KT P6SM OVC010 FM091400 VRB05KT 5SM BR BKN006 FM091900 18011G18KT P6SM BKN010 PROB30 1000/1003 4SM -SHRA BR OVC008 FM100300 18006KT P6SM BKN007 PROB30 1003/1006 4SM -SHRA BR OVC004=
METAR KAEX
WC KAEX
WS KAEX
WV KAEX